Home PIREPS Pireps

Flight WIN1016

  • Submitted By: AndrĂ© Vincent
  • Departure Airport: Bruxelles National (EBBR)
  • Arrival Airport: Poprad-Tatry Airport (LZTT)
  • Aircraft: YOUR CHOICE (YC)
  • Flight Time: 02.01
  • Date Submitted: 30/01/2017
  • Status: Accepted
Flight Details
Gross Revenue:
(25 load / € 0.00 per unit
€ 0.00
Fuel Cost:
(6640 fuel used @ 5.1 / unit)
€ 33,864.00

Additional Log Information:

View Log

Aircraft Used in flight is Boeing 737-800 sabena paint
08:25 Brakes are On
08:25 Brakes are Released
08:31 You Took off @ 209 Knots and Flaps at Position 2
Departure Weather
EBBR 300650Z 21014KT 3900 DZ SCT005 BKN007 06/05 Q1009 TEMPO 2500 DZrn
08:31 Landing Gear Up @ 212 Knots and 230 Feet
08:38 You exceeded maximum bank angle
08:50 Overspeed
08:50 Recovered from Overspeed
08:51 Overspeed
08:51 Recovered from Overspeed
09:06 Overspeed
09:06 Recovered from Overspeed
09:11 Overspeed
09:12 Recovered from Overspeed
09:12 Overspeed
09:12 Recovered from Overspeed
09:12 Overspeed
09:12 Recovered from Overspeed
09:20 Overspeed
09:20 Recovered from Overspeed
09:58 Above FL100 you need to switch of the landing lights
09:58 Above FL100 you need to switch of the landing lights
10:17 Landing Gear Down @ 142 Knots and 5560 Feet
10:21 You Landed @ 115 Knots and with -200 Vertical Speed
Arrival Weather
LZTT 300900Z VRB01KT 9999 FEW040 M06/M11 Q1022 NOSIGrn
10:26 Brakes are On
10:27 Brussels Bel-Track1.0.1.2

Route Map

Corporate About Us Our Team Vacancies Information Fleet Route Network Rules and Regulations Operations Flight Schedules Event Center Tours Partners IVAO Vatsim Acars dev FSCB

fb Users Online No pilots online!
0 Pilot(s) and 88 Guest(s) Online
CMS by phpVMS - Design by Crazycreatives.com - Copyright © 2018 - Brussels Airlines Virtual